createdAt,value
2024-05-09T00:00:42.715Z,100959.66
2024-05-09T00:03:11.404Z,100956.84
2024-05-09T00:05:43.048Z,100952.00
2024-05-09T00:08:11.487Z,100958.53
2024-05-09T00:10:40.732Z,100963.19
2024-05-09T00:13:09.619Z,100957.50
2024-05-09T00:15:37.436Z,100955.28
2024-05-09T00:18:07.147Z,100952.31
2024-05-09T00:20:39.055Z,100956.44
2024-05-09T00:23:11.073Z,100960.28
2024-05-09T00:25:39.475Z,100949.59
2024-05-09T00:28:06.952Z,100951.22
2024-05-09T00:30:36.464Z,100937.81
2024-05-09T00:33:06.468Z,100944.06
2024-05-09T00:35:35.327Z,100942.59
2024-05-09T00:38:02.861Z,100932.25
2024-05-09T00:40:40.999Z,100940.22
2024-05-09T00:43:11.410Z,100939.56
2024-05-09T00:45:39.161Z,100943.91
2024-05-09T00:48:08.813Z,100935.34
2024-05-09T00:50:41.517Z,100937.09
2024-05-09T00:53:12.625Z,100946.72
2024-05-09T00:55:41.107Z,100936.97
2024-05-09T00:58:11.060Z,100933.41
2024-05-09T01:00:40.651Z,100926.97
2024-05-09T01:03:12.003Z,100927.97
2024-05-09T01:05:41.228Z,100928.31
2024-05-09T01:08:10.046Z,100933.03
2024-05-09T01:10:38.146Z,100932.72
2024-05-09T01:13:06.810Z,100932.22
2024-05-09T01:15:35.506Z,100929.34
2024-05-09T01:18:07.781Z,100922.00
2024-05-09T01:20:41.557Z,100931.41
2024-05-09T01:23:12.346Z,100921.22
2024-05-09T01:25:40.287Z,100926.34
2024-05-09T01:28:07.615Z,100926.69
2024-05-09T01:30:37.171Z,100919.06
2024-05-09T01:33:08.085Z,100923.00
2024-05-09T01:35:37.722Z,100921.91
2024-05-09T01:38:05.254Z,100915.78
2024-05-09T01:40:38.138Z,100914.53
2024-05-09T01:43:11.240Z,100925.75
2024-05-09T01:45:40.307Z,100935.63
2024-05-09T01:48:09.345Z,100931.19
2024-05-09T01:50:40.586Z,100918.22
2024-05-09T01:53:15.094Z,100918.03
2024-05-09T01:55:43.069Z,100913.03
2024-05-09T01:58:10.704Z,100913.31
2024-05-09T02:00:42.298Z,100914.66
2024-05-09T02:03:14.475Z,100905.88
2024-05-09T02:05:45.097Z,100911.09
2024-05-09T02:08:17.562Z,100910.28
2024-05-09T02:10:47.121Z,100916.53
2024-05-09T02:13:15.326Z,100912.09
2024-05-09T02:15:42.807Z,100904.09
2024-05-09T02:18:10.770Z,100905.09
2024-05-09T02:20:41.146Z,100910.38
2024-05-09T02:23:09.467Z,100909.25
2024-05-09T02:25:36.857Z,100906.78
2024-05-09T02:28:04.382Z,100901.63
2024-05-09T02:30:39.520Z,100903.47
2024-05-09T02:33:13.525Z,100900.06
2024-05-09T02:35:43.450Z,100902.72
2024-05-09T02:38:11.881Z,100899.47
2024-05-09T02:40:40.140Z,100909.78
2024-05-09T02:43:09.960Z,100903.69
2024-05-09T02:45:39.104Z,100900.38
2024-05-09T02:48:07.470Z,100904.16
2024-05-09T02:50:39.040Z,100903.19
2024-05-09T02:53:09.358Z,100912.56
2024-05-09T02:55:40.546Z,100902.31
2024-05-09T02:58:08.109Z,100899.66
2024-05-09T03:00:39.719Z,100902.22
2024-05-09T03:03:11.132Z,100898.56
2024-05-09T03:05:40.911Z,100902.06
2024-05-09T03:08:08.485Z,100902.19
2024-05-09T03:10:38.024Z,100895.38
2024-05-09T03:13:13.270Z,100906.00
2024-05-09T03:15:42.732Z,100903.97
2024-05-09T03:18:11.358Z,100897.75
2024-05-09T03:20:39.511Z,100899.84
2024-05-09T03:23:08.922Z,100900.13
2024-05-09T03:25:37.494Z,100902.00
2024-05-09T03:28:05.175Z,100898.63
2024-05-09T03:30:39.996Z,100903.13
2024-05-09T03:33:20.558Z,100898.03
2024-05-09T03:35:49.270Z,100889.19
2024-05-09T03:38:17.123Z,100885.06
2024-05-09T03:40:49.929Z,100893.66
2024-05-09T03:43:18.793Z,100884.31
2024-05-09T03:45:47.986Z,100886.16
2024-05-09T03:48:15.407Z,100890.69
2024-05-09T03:50:42.932Z,100888.84
2024-05-09T03:53:11.741Z,100900.94
2024-05-09T03:55:39.275Z,100904.16
2024-05-09T03:58:09.769Z,100909.38
2024-05-09T04:00:39.068Z,100905.81
2024-05-09T04:03:10.197Z,100907.25
2024-05-09T04:05:43.965Z,100910.72
2024-05-09T04:08:13.168Z,100908.94
2024-05-09T04:10:41.106Z,100919.63
2024-05-09T04:13:10.121Z,100918.09
2024-05-09T04:15:37.284Z,100916.66
2024-05-09T04:18:04.704Z,100917.97
2024-05-09T04:20:38.384Z,100922.59
2024-05-09T04:23:11.030Z,100919.97
2024-05-09T04:25:38.366Z,100919.25
2024-05-09T04:28:05.988Z,100929.66
2024-05-09T04:30:38.399Z,100928.16
2024-05-09T04:33:11.173Z,100921.59
2024-05-09T04:35:42.734Z,100916.31
2024-05-09T04:38:10.781Z,100919.41
2024-05-09T04:40:38.453Z,100916.25
2024-05-09T04:43:07.003Z,100911.41
2024-05-09T04:45:34.967Z,100911.63
2024-05-09T04:48:02.719Z,100912.13
2024-05-09T04:50:36.590Z,100918.50
2024-05-09T04:53:08.154Z,100918.09
2024-05-09T04:55:37.089Z,100915.91
2024-05-09T04:58:05.861Z,100922.97
2024-05-09T05:00:37.279Z,100922.69
2024-05-09T05:03:08.548Z,100916.34
2024-05-09T05:05:41.461Z,100922.50
2024-05-09T05:08:19.283Z,100914.91
2024-05-09T05:10:48.367Z,100926.50
2024-05-09T05:13:21.059Z,100929.00
2024-05-09T05:15:51.492Z,100929.31
2024-05-09T05:18:19.220Z,100929.09
2024-05-09T05:20:46.706Z,100926.78
2024-05-09T05:23:16.157Z,100935.28
2024-05-09T05:25:43.825Z,100942.50
2024-05-09T05:28:11.348Z,100941.53
2024-05-09T05:30:39.275Z,100939.25
2024-05-09T05:33:07.750Z,100937.94
2024-05-09T05:35:35.144Z,100948.22
2024-05-09T05:38:06.743Z,100949.09
2024-05-09T05:40:37.243Z,100945.69
2024-05-09T05:43:10.607Z,100947.84
2024-05-09T05:45:39.183Z,100949.47
2024-05-09T05:48:07.773Z,100946.22
2024-05-09T05:50:37.637Z,100954.72
2024-05-09T05:53:07.753Z,100949.81
2024-05-09T05:55:36.462Z,100962.91
2024-05-09T05:58:03.910Z,100944.03
2024-05-09T06:00:38.227Z,100947.31
2024-05-09T06:03:08.866Z,100945.38
2024-05-09T06:05:37.356Z,100949.44
2024-05-09T06:08:05.067Z,100944.69
2024-05-09T06:10:38.125Z,100956.50
2024-05-09T06:13:14.249Z,100950.00
2024-05-09T06:15:42.567Z,100945.56
2024-05-09T06:18:11.568Z,100943.38
2024-05-09T06:20:43.022Z,100948.50
2024-05-09T06:23:11.910Z,100948.06
2024-05-09T06:25:39.415Z,100942.50
2024-05-09T06:28:06.836Z,100944.38
2024-05-09T06:30:40.285Z,100940.63
2024-05-09T06:33:11.065Z,100938.78
2024-05-09T06:35:40.415Z,100952.94
2024-05-09T06:38:11.425Z,100946.91
2024-05-09T06:40:41.993Z,100946.81
2024-05-09T06:43:16.400Z,100959.53
2024-05-09T06:45:47.180Z,100957.72
2024-05-09T06:48:15.042Z,100949.34
2024-05-09T06:50:42.388Z,100956.38
2024-05-09T06:53:09.964Z,100952.31
2024-05-09T06:55:37.976Z,100959.25
2024-05-09T06:58:09.459Z,100958.69
2024-05-09T07:00:39.898Z,100957.75
2024-05-09T07:03:15.548Z,100957.22
2024-05-09T07:05:46.534Z,100955.34
2024-05-09T07:08:15.056Z,100961.03
2024-05-09T07:10:42.365Z,100955.56
2024-05-09T07:13:10.738Z,100963.63
2024-05-09T07:15:38.946Z,100951.28
2024-05-09T07:18:24.729Z,100960.38
2024-05-09T07:20:53.240Z,100963.63
2024-05-09T07:23:20.703Z,100970.75
2024-05-09T07:25:48.240Z,100969.25
2024-05-09T07:28:17.454Z,100969.53
2024-05-09T07:30:45.297Z,100972.03
2024-05-09T07:33:21.229Z,100973.16
2024-05-09T07:35:50.092Z,100981.88
2024-05-09T07:38:17.506Z,100979.56
2024-05-09T07:40:44.816Z,100977.81
2024-05-09T07:43:13.226Z,100967.31
2024-05-09T07:45:50.450Z,100973.47
2024-05-09T07:52:38.886Z,100965.09
2024-05-09T07:53:47.249Z,100963.06
2024-05-09T07:56:19.400Z,100966.69
2024-05-09T07:58:50.993Z,100962.47
2024-05-09T08:01:18.816Z,100963.53
2024-05-09T08:03:49.359Z,100966.16
2024-05-09T08:06:16.777Z,100970.53
2024-05-09T08:08:45.747Z,100968.66
2024-05-09T08:11:13.248Z,100966.28
2024-05-09T08:13:40.486Z,100962.66
2024-05-09T08:16:09.555Z,100966.06
2024-05-09T08:18:36.984Z,100966.31
2024-05-09T08:21:04.458Z,100958.75
2024-05-09T08:23:31.877Z,100965.94
2024-05-09T08:25:59.787Z,100959.78
2024-05-09T08:28:28.042Z,100964.53
2024-05-09T08:30:55.435Z,100970.53
2024-05-09T08:33:23.495Z,100966.59
2024-05-09T08:35:50.765Z,100973.63
2024-05-09T08:38:17.935Z,100968.75
2024-05-09T08:40:45.257Z,100974.66
2024-05-09T08:43:16.775Z,100979.47
2024-05-09T08:45:45.311Z,100972.75
2024-05-09T08:48:18.221Z,100972.56
2024-05-09T08:50:46.009Z,100977.53
2024-05-09T08:53:15.360Z,100975.28
2024-05-09T08:55:44.197Z,100969.28
2024-05-09T08:58:17.032Z,100979.09
2024-05-09T09:00:46.029Z,100980.00
2024-05-09T09:03:18.435Z,100978.16
2024-05-09T09:06:00.431Z,100972.84
2024-05-09T09:08:28.267Z,100963.63
2024-05-09T09:10:58.834Z,100965.69
2024-05-09T09:13:28.833Z,100971.19
2024-05-09T09:15:59.198Z,100975.41
2024-05-09T09:18:27.611Z,100976.19
2024-05-09T09:20:55.470Z,100974.13
2024-05-09T09:23:22.991Z,100975.69
2024-05-09T09:25:50.482Z,100976.56
2024-05-09T09:28:17.796Z,100974.22
2024-05-09T09:30:46.287Z,100973.00
2024-05-09T09:33:13.783Z,100965.97
2024-05-09T09:35:42.510Z,100962.75
2024-05-09T09:38:10.737Z,100965.84
2024-05-09T09:40:46.709Z,100961.34
2024-05-09T09:43:21.953Z,100968.34
2024-05-09T09:45:51.984Z,100962.44
2024-05-09T09:48:20.561Z,100959.69
2024-05-09T09:50:48.701Z,100954.47
2024-05-09T09:53:16.886Z,100941.00
2024-05-09T09:55:44.195Z,100951.06
2024-05-09T09:58:14.289Z,100950.41
2024-05-09T10:00:42.347Z,100950.00
2024-05-09T10:03:09.938Z,100936.22
2024-05-09T10:05:38.352Z,100936.22
2024-05-09T10:08:07.683Z,100932.69
2024-05-09T10:10:37.031Z,100937.34
2024-05-09T10:13:05.360Z,100938.75
2024-05-09T10:15:54.756Z,100930.47
2024-05-09T10:18:28.457Z,100936.84
2024-05-09T10:20:58.051Z,100924.72
2024-05-09T10:23:29.449Z,100924.94
2024-05-09T10:26:05.663Z,100936.59
2024-05-09T10:28:42.606Z,100925.38
2024-05-09T10:31:15.694Z,100918.25
2024-05-09T10:33:51.599Z,100923.47
2024-05-09T10:36:22.144Z,100914.34
2024-05-09T10:38:50.230Z,100910.41
2024-05-09T10:41:18.439Z,100916.31
2024-05-09T10:43:45.971Z,100910.75
2024-05-09T10:46:14.849Z,100904.94
2024-05-09T10:48:44.261Z,100911.19
2024-05-09T10:51:12.115Z,100921.66
2024-05-09T10:53:42.987Z,100917.59
2024-05-09T10:56:10.995Z,100918.56
2024-05-09T10:58:38.295Z,100918.50
2024-05-09T11:01:07.311Z,100915.59
2024-05-09T11:03:35.979Z,100919.91
2024-05-09T11:06:03.766Z,100921.56
2024-05-09T11:08:32.931Z,100909.13
2024-05-09T11:11:03.192Z,100915.69
2024-05-09T11:13:31.946Z,100916.38
2024-05-09T11:16:00.245Z,100905.03
2024-05-09T11:18:33.273Z,100910.84
2024-05-09T11:21:03.697Z,100919.16
2024-05-09T11:23:31.711Z,100912.38
2024-05-09T11:25:59.340Z,100926.94
2024-05-09T11:28:28.869Z,100932.06
2024-05-09T11:31:08.041Z,100940.16
2024-05-09T11:33:40.458Z,100927.16
2024-05-09T11:36:09.531Z,100934.34
2024-05-09T11:38:37.360Z,100945.94
2024-05-09T11:41:05.899Z,100941.84
2024-05-09T11:43:33.827Z,100942.72
2024-05-09T11:46:03.555Z,100941.47
2024-05-09T11:48:32.020Z,100946.16
2024-05-09T11:50:59.571Z,100951.06
2024-05-09T11:53:26.893Z,100946.00
2024-05-09T11:55:54.157Z,100949.38
2024-05-09T11:58:23.151Z,100948.44
2024-05-09T12:00:50.693Z,100951.75
2024-05-09T12:03:18.346Z,100948.59
2024-05-09T12:05:45.911Z,100954.25
2024-05-09T12:08:13.504Z,100940.59
2024-05-09T12:10:41.167Z,100939.69
2024-05-09T12:13:08.744Z,100944.91
2024-05-09T12:15:37.860Z,100947.28
2024-05-09T12:18:07.774Z,100943.91
2024-05-09T12:20:38.665Z,100942.91
2024-05-09T12:23:10.111Z,100944.41
2024-05-09T12:25:39.737Z,100937.16
2024-05-09T12:28:08.219Z,100939.78
2024-05-09T12:30:39.887Z,100943.56
2024-05-09T12:33:11.066Z,100930.44
2024-05-09T12:35:39.257Z,100939.25
2024-05-09T12:38:06.506Z,100942.34
2024-05-09T12:40:37.105Z,100943.97
2024-05-09T12:43:10.645Z,100941.25
2024-05-09T12:45:39.366Z,100928.06
2024-05-09T12:48:12.278Z,100947.78
2024-05-09T12:50:42.087Z,100937.50
2024-05-09T12:53:09.622Z,100934.91
2024-05-09T12:55:44.336Z,100938.81
2024-05-09T12:58:22.501Z,100939.69
2024-05-09T13:00:52.214Z,100933.91
2024-05-09T13:03:20.180Z,100935.59
2024-05-09T13:05:47.675Z,100935.38
2024-05-09T13:08:15.207Z,100931.81
2024-05-09T13:10:42.798Z,100925.50
2024-05-09T13:13:11.138Z,100930.53
2024-05-09T13:15:39.131Z,100925.69
2024-05-09T13:18:06.945Z,100924.38
2024-05-09T13:20:36.374Z,100927.06
2024-05-09T13:23:08.408Z,100926.09
2024-05-09T13:25:37.355Z,100922.03
2024-05-09T13:28:05.967Z,100917.75
2024-05-09T13:30:39.695Z,100918.63
2024-05-09T13:33:14.122Z,100913.47
2024-05-09T13:35:47.148Z,100916.19
2024-05-09T13:38:19.356Z,100903.72
2024-05-09T13:40:47.633Z,100915.56
2024-05-09T13:43:15.348Z,100913.78
2024-05-09T13:45:42.895Z,100909.66
2024-05-09T13:48:10.643Z,100912.25
2024-05-09T13:50:39.333Z,100911.47
2024-05-09T13:53:08.082Z,100913.63
2024-05-09T13:55:39.647Z,100917.44
2024-05-09T13:58:08.560Z,100922.22
2024-05-09T14:00:44.651Z,100923.28
2024-05-09T14:03:18.031Z,100911.81
2024-05-09T14:05:47.210Z,100908.44
2024-05-09T14:08:15.986Z,100911.47
2024-05-09T14:10:47.297Z,100920.63
2024-05-09T14:13:15.249Z,100912.44
2024-05-09T14:15:44.186Z,100916.19
2024-05-09T14:18:13.874Z,100920.72
2024-05-09T14:20:42.958Z,100913.09
2024-05-09T14:23:10.410Z,100920.53
2024-05-09T14:25:42.647Z,100924.66
2024-05-09T14:28:12.685Z,100913.06
2024-05-09T14:30:40.618Z,100914.78
2024-05-09T14:33:09.390Z,100923.66
2024-05-09T14:35:38.879Z,100920.94
2024-05-09T14:38:07.714Z,100918.63
2024-05-09T14:40:41.845Z,100919.94
2024-05-09T14:43:15.470Z,100916.69
2024-05-09T14:45:44.109Z,100912.84
2024-05-09T14:48:14.776Z,100913.91
2024-05-09T14:50:43.005Z,100914.66
2024-05-09T14:53:11.356Z,100914.47
2024-05-09T14:55:41.034Z,100924.72
2024-05-09T14:58:10.698Z,100919.34
2024-05-09T15:00:44.856Z,100934.97
2024-05-09T15:03:15.740Z,100933.38
2024-05-09T15:05:43.198Z,100929.66
2024-05-09T15:08:10.483Z,100936.25
2024-05-09T15:10:38.925Z,100934.81
2024-05-09T15:13:08.117Z,100936.97
2024-05-09T15:15:37.488Z,100948.25
2024-05-09T15:18:06.321Z,100941.59
2024-05-09T15:20:36.598Z,100941.38
2024-05-09T15:23:06.842Z,100944.16
2024-05-09T15:25:36.163Z,100950.56
2024-05-09T15:28:05.122Z,100947.59
2024-05-09T15:30:33.887Z,100943.81
2024-05-09T15:33:06.197Z,100937.97
2024-05-09T15:35:34.978Z,100946.09
2024-05-09T15:38:03.611Z,100940.63
2024-05-09T15:40:38.284Z,100946.16
2024-05-09T15:43:09.350Z,100939.06
2024-05-09T15:45:38.074Z,100943.34
2024-05-09T15:48:06.787Z,100950.53
2024-05-09T15:50:38.916Z,100939.84
2024-05-09T15:53:13.391Z,100943.66
2024-05-09T15:55:42.190Z,100951.69
2024-05-09T15:58:10.273Z,100950.38
2024-05-09T16:00:41.291Z,100950.00
2024-05-09T16:03:12.015Z,100957.00
2024-05-09T16:05:41.408Z,100954.56
2024-05-09T16:08:09.581Z,100947.47
2024-05-09T16:10:43.519Z,100958.91
2024-05-09T16:13:12.299Z,100961.38
2024-05-09T16:15:39.874Z,100958.41
2024-05-09T16:18:07.803Z,100965.00
2024-05-09T16:20:40.010Z,100954.75
2024-05-09T16:23:09.643Z,100945.66
2024-05-09T16:25:37.524Z,100961.06
2024-05-09T16:28:08.825Z,100959.03
2024-05-09T16:30:39.251Z,100958.16
2024-05-09T16:33:06.966Z,100962.59
2024-05-09T16:35:35.057Z,100966.44
2024-05-09T16:38:03.340Z,100967.63
2024-05-09T16:40:37.793Z,100977.38
2024-05-09T16:43:12.634Z,100977.59
2024-05-09T16:45:43.603Z,100982.69
2024-05-09T16:48:11.720Z,100985.06
2024-05-09T16:50:39.273Z,100979.09
2024-05-09T16:53:07.168Z,100982.22
2024-05-09T16:55:35.586Z,100986.91
2024-05-09T16:58:03.840Z,100979.78
2024-05-09T17:00:39.648Z,100978.72
2024-05-09T17:03:11.605Z,100981.75
2024-05-09T17:05:40.228Z,100988.50
2024-05-09T17:08:08.344Z,100984.53
2024-05-09T17:10:38.629Z,100987.47
2024-05-09T17:13:07.545Z,100997.19
2024-05-09T17:15:37.186Z,100986.03
2024-05-09T17:18:06.677Z,100985.22
2024-05-09T17:20:36.537Z,100996.66
2024-05-09T17:23:13.388Z,101000.09
2024-05-09T17:25:42.257Z,100997.38
2024-05-09T17:28:10.707Z,100996.66
2024-05-09T17:30:39.937Z,101002.66
2024-05-09T17:33:10.246Z,101000.56
2024-05-09T17:35:38.832Z,101009.03
2024-05-09T17:38:06.785Z,101011.53
2024-05-09T17:40:36.827Z,101016.28
2024-05-09T17:43:08.014Z,101017.75
2024-05-09T17:45:40.880Z,101023.06
2024-05-09T17:48:12.575Z,101017.28
2024-05-09T17:50:41.365Z,101019.13
2024-05-09T17:53:09.874Z,101014.94
2024-05-09T17:55:37.391Z,101022.91
2024-05-09T17:58:05.651Z,101020.78
2024-05-09T18:00:39.152Z,101016.41
2024-05-09T18:03:13.701Z,101018.66
2024-05-09T18:05:42.958Z,101021.06
2024-05-09T18:08:11.411Z,101022.00
2024-05-09T18:10:40.682Z,101025.56
2024-05-09T18:13:09.506Z,101025.31
2024-05-09T18:15:37.400Z,101029.56
2024-05-09T18:18:05.731Z,101029.38
2024-05-09T18:20:41.743Z,101025.28
2024-05-09T18:23:14.347Z,101035.78
2024-05-09T18:25:42.798Z,101030.59
2024-05-09T18:28:10.672Z,101042.69
2024-05-09T18:30:38.362Z,101035.63
2024-05-09T18:33:07.859Z,101036.69
2024-05-09T18:35:36.512Z,101042.59
2024-05-09T18:38:05.705Z,101043.63
2024-05-09T18:40:36.492Z,101045.56
2024-05-09T18:43:07.810Z,101042.59
2024-05-09T18:45:37.871Z,101049.22
2024-05-09T18:48:06.973Z,101046.72
2024-05-09T18:50:38.001Z,101053.13
2024-05-09T18:53:08.263Z,101056.50
2024-05-09T18:55:36.152Z,101052.03
2024-05-09T18:58:06.796Z,101052.78
2024-05-09T19:00:37.548Z,101047.34
2024-05-09T19:03:12.656Z,101044.16
2024-05-09T19:05:43.399Z,101051.91
2024-05-09T19:08:11.987Z,101052.75
2024-05-09T19:10:39.722Z,101051.09
2024-05-09T19:13:11.707Z,101052.94
2024-05-09T19:15:41.508Z,101057.91
2024-05-09T19:18:10.493Z,101058.34
2024-05-09T19:20:38.596Z,101056.50
2024-05-09T19:23:07.190Z,101057.47
2024-05-09T19:25:35.275Z,101059.53
2024-05-09T19:28:03.567Z,101062.34
2024-05-09T19:30:38.576Z,101073.59
2024-05-09T19:33:10.211Z,101075.69
2024-05-09T19:35:38.422Z,101082.00
2024-05-09T19:38:05.733Z,101081.75
2024-05-09T19:40:34.621Z,101073.53
2024-05-09T19:43:05.118Z,101076.06
2024-05-09T19:45:34.568Z,101075.78
2024-05-09T19:48:03.275Z,101079.47
2024-05-09T19:50:37.490Z,101074.81
2024-05-09T19:53:10.935Z,101074.19
2024-05-09T19:55:38.708Z,101069.22
2024-05-09T19:58:07.467Z,101072.00
2024-05-09T20:00:38.284Z,101070.94
2024-05-09T20:03:08.016Z,101077.28
2024-05-09T20:05:36.053Z,101073.06
2024-05-09T20:08:03.860Z,101071.41
2024-05-09T20:10:33.329Z,101070.22
2024-05-09T20:13:02.872Z,101082.88
2024-05-09T20:15:30.924Z,101081.19
2024-05-09T20:17:58.417Z,101075.81
2024-05-09T20:20:33.741Z,101070.88
2024-05-09T20:23:09.354Z,101075.25
2024-05-09T20:25:37.179Z,101075.13
2024-05-09T20:28:06.587Z,101069.25
2024-05-09T20:30:35.741Z,101064.97
2024-05-09T20:33:05.893Z,101070.84
2024-05-09T20:35:34.934Z,101064.81
2024-05-09T20:38:03.302Z,101055.09
2024-05-09T20:40:35.417Z,101057.78
2024-05-09T20:43:06.583Z,101059.81
2024-05-09T20:45:34.683Z,101059.81
2024-05-09T20:48:02.409Z,101060.03
2024-05-09T20:50:37.223Z,101055.66
2024-05-09T20:53:10.133Z,101058.34
2024-05-09T20:55:37.425Z,101053.78
2024-05-09T20:58:05.406Z,101046.84
2024-05-09T21:00:39.527Z,101041.47
2024-05-09T21:03:10.806Z,101047.41
2024-05-09T21:05:38.790Z,101039.47
2024-05-09T21:08:06.813Z,101043.72
2024-05-09T21:10:35.373Z,101042.44
2024-05-09T21:13:03.684Z,101054.03
2024-05-09T21:15:31.851Z,101050.63
2024-05-09T21:17:59.905Z,101046.81
2024-05-09T21:22:58.004Z,101047.94
2024-05-09T21:25:25.335Z,101047.06
2024-05-09T21:27:53.164Z,101048.84
2024-05-09T21:30:32.269Z,101050.47
2024-05-09T21:33:13.443Z,101047.09
2024-05-09T21:35:43.722Z,101050.69
2024-05-09T21:38:11.417Z,101049.09
2024-05-09T21:40:38.891Z,101049.34
2024-05-09T21:43:09.672Z,101041.34
2024-05-09T21:45:37.420Z,101042.34
2024-05-09T21:48:06.433Z,101049.34
2024-05-09T21:50:39.914Z,101048.41
2024-05-09T21:53:12.742Z,101048.44
2024-05-09T21:55:40.655Z,101045.81
2024-05-09T21:58:08.137Z,101037.81
2024-05-09T22:00:38.323Z,101045.72
2024-05-09T22:03:10.970Z,101040.56
2024-05-09T22:05:42.460Z,101046.00
2024-05-09T22:08:11.007Z,101049.59
2024-05-09T22:10:38.734Z,101051.19
2024-05-09T22:13:07.051Z,101052.84
2024-05-09T22:15:39.708Z,101050.53
2024-05-09T22:18:08.933Z,101045.44
2024-05-09T22:20:39.400Z,101046.19
2024-05-09T22:23:08.471Z,101043.16
2024-05-09T22:25:37.137Z,101037.97
2024-05-09T22:28:05.314Z,101047.53
2024-05-09T22:30:37.194Z,101045.13
2024-05-09T22:33:11.804Z,101047.84
2024-05-09T22:35:40.898Z,101041.53
2024-05-09T22:38:08.660Z,101034.41
2024-05-09T22:40:46.669Z,101042.63
2024-05-09T22:43:25.604Z,101032.41
2024-05-09T22:45:57.074Z,101029.72
2024-05-09T22:48:25.794Z,101035.91
2024-05-09T22:50:53.678Z,101025.09
2024-05-09T22:53:25.432Z,101024.56
2024-05-09T22:55:52.934Z,101020.41
2024-05-09T22:58:20.926Z,101024.72
2024-05-09T23:00:48.348Z,101021.97
2024-05-09T23:03:16.870Z,101024.13
2024-05-09T23:05:44.162Z,101017.47
2024-05-09T23:08:11.319Z,101016.78
2024-05-09T23:10:38.793Z,101010.66
2024-05-09T23:13:07.739Z,101005.22
2024-05-09T23:15:37.364Z,101002.75
2024-05-09T23:18:05.361Z,101005.63
2024-05-09T23:20:37.710Z,101005.66
2024-05-09T23:23:08.161Z,101003.13
2024-05-09T23:25:35.507Z,101009.28
2024-05-09T23:28:02.878Z,100998.78
2024-05-09T23:30:37.385Z,100998.75
2024-05-09T23:33:08.717Z,101000.53
2024-05-09T23:35:36.164Z,100998.66
2024-05-09T23:38:04.154Z,100994.91
2024-05-09T23:40:38.466Z,100996.91
2024-05-09T23:43:09.393Z,101001.34
2024-05-09T23:45:37.192Z,100997.75
2024-05-09T23:48:05.361Z,100999.50
2024-05-09T23:50:36.545Z,100997.69
2024-05-09T23:53:07.640Z,100996.59
2024-05-09T23:55:36.070Z,100995.66
2024-05-09T23:58:03.518Z,100999.13
